Time;durP1;ratioP1;P1;durP2;ratioP2;P2;SDS_P1;SDS_P2;PMS_P1;PMS_P2;Temp;Humidity;BMP_temperature;BMP_pressure;BME280_temperature;BME280_humidity;BME280_pressure;Samples;Min_cycle;Max_cycle;Signal;HPM_P1;HPM_P2
2023/05/01 00:01:16;;;;;;;0.00;0.00;;;;;;;10.91;99.29;100622.81;6307636;22;20102;-76
2023/05/01 00:03:42;;;;;;;0.00;0.00;;;;;;;10.84;99.88;100622.22;6336331;22;20014;-74
2023/05/01 00:06:07;;;;;;;0.00;0.00;;;;;;;10.72;99.87;100613.34;6332989;22;20081;-75
2023/05/01 00:08:33;;;;;;;0.00;0.00;;;;;;;10.65;100.00;100603.47;6337022;22;20747;-75
2023/05/01 00:11:03;;;;;;;0.00;0.00;;;;;;;10.70;100.00;100615.53;6364670;22;20006;-75
2023/05/01 00:13:29;;;;;;;0.00;0.00;;;;;;;10.79;100.00;100616.69;6360507;22;20491;-74
2023/05/01 00:15:54;;;;;;;0.00;0.00;;;;;;;10.83;100.00;100609.59;6312095;22;20421;-75
2023/05/01 00:18:20;;;;;;;0.00;0.00;;;;;;;10.89;99.97;100610.47;6335329;22;20565;-74
2023/05/01 00:20:45;;;;;;;0.00;0.00;;;;;;;10.89;100.00;100608.56;6337404;22;20009;-75
2023/05/01 00:23:18;;;;;;;0.00;0.00;;;;;;;10.83;100.00;100604.13;6338113;22;20010;-74
2023/05/01 00:25:43;;;;;;;0.00;0.00;;;;;;;10.83;100.00;100599.50;6309939;22;20059;-74
2023/05/01 00:28:09;;;;;;;0.00;0.00;;;;;;;10.85;100.00;100601.97;6312348;22;20379;-73
2023/05/01 00:30:34;;;;;;;0.00;0.00;;;;;;;10.91;100.00;100606.38;6308408;22;20009;-75
2023/05/01 00:33:01;;;;;;;0.00;0.00;;;;;;;10.99;100.00;100607.81;6285158;22;20010;-74
2023/05/01 00:35:26;;;;;;;0.00;0.00;;;;;;;11.02;99.72;100603.72;6307897;22;20063;-74
2023/05/01 00:37:52;;;;;;;0.00;0.00;;;;;;;11.03;99.90;100599.91;6365642;22;20003;-74
2023/05/01 00:40:18;;;;;;;0.00;0.00;;;;;;;10.96;100.00;100597.38;6366536;22;20002;-74
2023/05/01 00:42:43;;;;;;;0.00;0.00;;;;;;;10.94;99.93;100589.44;6334565;22;20006;-74
2023/05/01 00:45:09;;;;;;;0.00;0.00;;;;;;;10.88;100.00;100575.97;6287332;22;20310;-73
2023/05/01 00:47:35;;;;;;;0.00;0.00;;;;;;;10.77;100.00;100577.84;6332970;22;20002;-74
2023/05/01 00:50:01;;;;;;;0.00;0.00;;;;;;;10.59;100.00;100585.38;6337369;22;20021;-74
2023/05/01 00:52:27;;;;;;;0.00;0.00;;;;;;;10.41;100.00;100572.09;6307207;22;20071;-73
2023/05/01 00:54:53;;;;;;;0.00;0.00;;;;;;;10.39;100.00;100571.56;6310229;22;20379;-73
2023/05/01 00:57:22;;;;;;;0.00;0.00;;;;;;;10.48;100.00;100576.28;6335897;22;20591;-74
2023/05/01 00:59:47;;;;;;;0.00;0.00;;;;;;;10.63;100.00;100580.19;6305894;22;20002;-75
2023/05/01 01:02:13;;;;;;;0.00;0.00;;;;;;;10.75;100.00;100585.50;6336840;22;20031;-75
2023/05/01 01:04:44;;;;;;;0.00;0.00;;;;;;;10.83;100.00;100582.25;6358696;22;20067;-75
2023/05/01 01:07:44;;;;;;;0.00;0.00;;;;;;;10.87;100.00;100582.56;6364816;22;19999;-75
2023/05/01 01:10:09;;;;;;;0.00;0.00;;;;;;;10.89;99.69;100585.84;6335977;22;19999;-75
2023/05/01 01:12:47;;;;;;;0.03;0.03;;;;;;;10.84;99.19;100586.66;6335188;22;20013;-74
2023/05/01 01:15:32;;;;;;;0.00;0.00;;;;;;;10.79;98.45;100586.59;6333564;22;20041;-75
2023/05/01 01:18:01;;;;;;;0.00;0.00;;;;;;;10.65;98.02;100570.66;6362391;22;20431;-75
2023/05/01 01:20:55;;;;;;;0.10;0.10;;;;;;;10.45;97.46;100570.50;6332625;22;20690;-73
2023/05/01 01:23:27;;;;;;;0.00;0.00;;;;;;;10.08;98.07;100563.06;6332201;22;20148;-73
2023/05/01 01:26:17;;;;;;;0.00;0.00;;;;;;;9.88;98.47;100550.84;6335480;22;20029;-74
2023/05/01 01:29:41;;;;;;;0.00;0.00;;;;;;;9.72;99.31;100551.78;6357180;22;19998;-75
2023/05/01 01:32:06;;;;;;;0.10;0.10;;;;;;;9.60;100.00;100560.94;6292148;22;20493;-75
2023/05/01 01:34:46;;;;;;;0.00;0.00;;;;;;;9.50;100.00;100549.09;6336569;22;20004;-75
2023/05/01 01:37:38;;;;;;;0.00;0.00;;;;;;;9.45;100.00;100549.88;6329202;22;20006;-74
2023/05/01 01:40:11;;;;;;;0.10;0.10;;;;;;;9.34;100.00;100539.91;6350145;22;19998;-75
2023/05/01 01:42:43;;;;;;;0.00;0.00;;;;;;;9.15;100.00;100534.75;6330571;22;20002;-74
2023/05/01 01:45:20;;;;;;;0.00;0.00;;;;;;;9.00;100.00;100540.03;6332639;22;20025;-74
2023/05/01 01:47:47;;;;;;;0.00;0.00;;;;;;;8.86;100.00;100534.94;6330964;22;20091;-74
2023/05/01 01:50:13;;;;;;;0.00;0.00;;;;;;;8.70;100.00;100524.88;6337641;22;20029;-74
2023/05/01 01:52:42;;;;;;;0.00;0.00;;;;;;;8.58;100.00;100513.28;6362368;22;20030;-74
2023/05/01 01:55:13;;;;;;;0.00;0.00;;;;;;;8.55;100.00;100523.59;6310163;22;20010;-75
2023/05/01 01:57:43;;;;;;;0.00;0.00;;;;;;;8.45;100.00;100523.44;6361649;22;19995;-75
2023/05/01 02:00:10;;;;;;;0.00;0.00;;;;;;;8.42;100.00;100523.91;6337008;22;20040;-75
2023/05/01 02:02:46;;;;;;;0.00;0.00;;;;;;;8.39;100.00;100524.41;6359325;22;20871;-73
2023/05/01 02:05:18;;;;;;;0.00;0.00;;;;;;;8.31;100.00;100519.38;6337124;22;20424;-74
2023/05/01 02:07:47;;;;;;;0.00;0.00;;;;;;;8.27;100.00;100524.50;6331480;22;20001;-74
2023/05/01 02:10:14;;;;;;;0.00;0.00;;;;;;;8.26;100.00;100524.75;6359740;22;19998;-74
2023/05/01 02:12:51;;;;;;;0.08;0.08;;;;;;;8.21;100.00;100512.69;6307708;22;20010;-74
2023/05/01 02:15:18;;;;;;;0.00;0.00;;;;;;;8.21;100.00;100520.88;6359215;22;20006;-73
2023/05/01 02:17:44;;;;;;;0.00;0.00;;;;;;;8.14;100.00;100514.75;6337756;22;20006;-74
2023/05/01 02:20:12;;;;;;;0.00;0.00;;;;;;;8.07;100.00;100505.91;6359744;22;20474;-74
2023/05/01 02:22:39;;;;;;;0.00;0.00;;;;;;;8.04;100.00;100511.84;6364050;22;20022;-75
2023/05/01 02:25:09;;;;;;;0.10;0.10;;;;;;;8.01;100.00;100520.53;6363171;22;20377;-75
2023/05/01 02:27:39;;;;;;;0.00;0.00;;;;;;;7.99;100.00;100517.25;6338131;22;20085;-75
2023/05/01 02:30:06;;;;;;;0.00;0.00;;;;;;;7.90;100.00;100510.53;6336315;22;20009;-75
2023/05/01 02:32:32;;;;;;;0.00;0.00;;;;;;;7.88;100.00;100512.69;6333459;22;20497;-76
2023/05/01 02:34:58;;;;;;;0.00;0.00;;;;;;;7.89;100.00;100512.44;6340362;22;20010;-75
2023/05/01 02:37:24;;;;;;;0.00;0.00;;;;;;;7.96;100.00;100506.84;6305977;22;20006;-75
2023/05/01 02:39:49;;;;;;;0.00;0.00;;;;;;;7.96;100.00;100499.50;6340116;22;20444;-76
2023/05/01 02:42:18;;;;;;;0.00;0.00;;;;;;;7.99;100.00;100498.19;6303772;22;20039;-74
2023/05/01 02:45:05;;;;;;;0.00;0.00;;;;;;;7.99;100.00;100509.06;6362827;22;20060;-74
2023/05/01 02:47:34;;;;;;;0.00;0.00;;;;;;;7.86;100.00;100499.31;6362957;22;20005;-75
2023/05/01 02:50:01;;;;;;;0.00;0.00;;;;;;;7.84;100.00;100502.28;6337714;22;20047;-74
2023/05/01 02:52:28;;;;;;;0.00;0.00;;;;;;;7.83;100.00;100500.63;6332779;22;20013;-74
2023/05/01 02:54:54;;;;;;;0.00;0.00;;;;;;;7.83;100.00;100497.09;6311327;22;20010;-75
2023/05/01 02:57:20;;;;;;;0.00;0.00;;;;;;;7.85;100.00;100498.47;6338997;22;20013;-75
2023/05/01 02:59:46;;;;;;;0.00;0.00;;;;;;;7.82;100.00;100498.16;6359799;22;20827;-76
2023/05/01 03:02:11;;;;;;;0.00;0.00;;;;;;;7.75;100.00;100492.03;6339448;22;20078;-75
2023/05/01 03:04:37;;;;;;;0.00;0.00;;;;;;;7.66;100.00;100494.34;6359987;22;20027;-76
2023/05/01 03:07:03;;;;;;;0.00;0.00;;;;;;;7.67;100.00;100479.66;6285744;22;20089;-76
2023/05/01 03:09:30;;;;;;;0.00;0.00;;;;;;;7.82;100.00;100493.53;6307366;22;19998;-74
2023/05/01 03:11:56;;;;;;;0.00;0.00;;;;;;;7.98;100.00;100491.06;6334851;22;20089;-75
2023/05/01 03:14:21;;;;;;;0.00;0.00;;;;;;;8.12;100.00;100492.41;6336485;22;20062;-74
2023/05/01 03:16:47;;;;;;;0.00;0.00;;;;;;;8.21;100.00;100480.00;6281531;22;20002;-74
2023/05/01 03:19:12;;;;;;;0.00;0.00;;;;;;;8.34;100.00;100488.91;6337491;22;20074;-74
2023/05/01 03:21:38;;;;;;;0.00;0.00;;;;;;;8.39;100.00;100497.16;6338165;22;20010;-75
2023/05/01 03:24:03;;;;;;;0.00;0.00;;;;;;;8.42;100.00;100491.19;6331512;22;20030;-74
2023/05/01 03:26:29;;;;;;;0.00;0.00;;;;;;;8.45;100.00;100489.91;6337207;22;20012;-74
2023/05/01 03:28:54;;;;;;;0.00;0.00;;;;;;;8.49;100.00;100497.34;6308835;22;19999;-75
2023/05/01 03:31:20;;;;;;;0.00;0.00;;;;;;;8.53;100.00;100498.50;6338114;22;20497;-75
2023/05/01 03:33:46;;;;;;;0.00;0.00;;;;;;;8.56;100.00;100506.16;6332580;22;20006;-75
2023/05/01 03:36:12;;;;;;;0.00;0.00;;;;;;;8.60;100.00;100505.66;6335797;22;20378;-75
2023/05/01 03:38:37;;;;;;;0.00;0.00;;;;;;;8.67;100.00;100504.44;6337662;22;20010;-75
2023/05/01 03:41:04;;;;;;;0.00;0.00;;;;;;;8.73;100.00;100502.56;6305081;22;20021;-75
2023/05/01 03:43:30;;;;;;;0.00;0.00;;;;;;;8.77;100.00;100498.25;6338485;22;20002;-75
2023/05/01 03:45:56;;;;;;;0.00;0.00;;;;;;;8.82;100.00;100501.06;6358964;22;20009;-75
2023/05/01 03:48:22;;;;;;;0.00;0.00;;;;;;;8.86;100.00;100496.78;6309986;22;20002;-75
2023/05/01 03:50:47;;;;;;;0.10;0.10;;;;;;;8.91;100.00;100498.72;6332922;22;20318;-75
2023/05/01 03:53:13;;;;;;;0.00;0.00;;;;;;;8.91;100.00;100494.09;6312347;22;20407;-75
2023/05/01 03:55:39;;;;;;;0.00;0.00;;;;;;;8.96;100.00;100490.59;6332900;22;20006;-75
2023/05/01 03:58:05;;;;;;;0.00;0.00;;;;;;;8.95;100.00;100493.59;6313425;22;20444;-75
2023/05/01 04:00:31;;;;;;;0.00;0.00;;;;;;;8.97;100.00;100486.00;6363176;22;20006;-75
2023/05/01 04:02:57;;;;;;;0.00;0.00;;;;;;;9.00;100.00;100486.28;6361788;22;20009;-75
2023/05/01 04:05:22;;;;;;;0.00;0.00;;;;;;;9.03;100.00;100480.31;6336538;22;20033;-75
2023/05/01 04:07:47;;;;;;;0.00;0.00;;;;;;;9.00;100.00;100475.38;6331114;22;20006;-74
2023/05/01 04:10:13;;;;;;;0.00;0.00;;;;;;;9.04;100.00;100478.44;6286452;22;20098;-75
2023/05/01 04:12:38;;;;;;;0.00;0.00;;;;;;;9.11;100.00;100491.88;6304874;22;20013;-75
2023/05/01 04:15:04;;;;;;;0.00;0.00;;;;;;;9.06;100.00;100474.34;6309352;22;20025;-75
2023/05/01 04:17:30;;;;;;;0.00;0.00;;;;;;;9.09;100.00;100479.31;6335416;22;20002;-75
2023/05/01 04:19:56;;;;;;;0.00;0.00;;;;;;;9.15;100.00;100480.19;6335102;22;20006;-75
2023/05/01 04:22:22;;;;;;;0.00;0.00;;;;;;;9.16;100.00;100479.13;6365467;22;20059;-75
2023/05/01 04:24:48;;;;;;;0.00;0.00;;;;;;;9.17;100.00;100464.41;6331980;22;20420;-75
2023/05/01 04:27:13;;;;;;;0.00;0.00;;;;;;;9.18;100.00;100476.94;6286863;22;20021;-75
2023/05/01 04:29:40;;;;;;;0.00;0.00;;;;;;;9.20;100.00;100473.97;6332430;22;20033;-75
2023/05/01 04:32:05;;;;;;;0.00;0.00;;;;;;;9.08;100.00;100465.91;6309463;22;20093;-74
2023/05/01 04:34:31;;;;;;;0.00;0.00;;;;;;;9.14;100.00;100475.00;6285171;22;20369;-75
2023/05/01 04:36:56;;;;;;;0.00;0.00;;;;;;;9.12;100.00;100464.34;6360151;22;20006;-75
2023/05/01 04:39:22;;;;;;;0.00;0.00;;;;;;;9.13;100.00;100463.25;6313231;22;20059;-74
2023/05/01 04:41:48;;;;;;;0.00;0.00;;;;;;;9.04;100.00;100459.34;6358018;22;20002;-74
2023/05/01 04:44:14;;;;;;;0.00;0.00;;;;;;;8.91;100.00;100455.91;6336609;22;20006;-74
2023/05/01 04:46:43;;;;;;;0.00;0.00;;;;;;;8.67;100.00;100432.69;6334534;22;20050;-75
2023/05/01 04:49:09;;;;;;;0.00;0.00;;;;;;;8.72;100.00;100451.88;6334552;22;20038;-75
2023/05/01 04:51:34;;;;;;;0.00;0.00;;;;;;;8.84;100.00;100466.19;6308178;22;20013;-75
2023/05/01 04:54:00;;;;;;;0.00;0.00;;;;;;;8.91;100.00;100464.09;6362591;22;20002;-75
2023/05/01 04:56:25;;;;;;;0.05;0.05;;;;;;;8.99;100.00;100467.44;6338329;22;20350;-75
2023/05/01 04:58:51;;;;;;;0.00;0.00;;;;;;;9.02;100.00;100461.50;6329992;22;20037;-75
2023/05/01 05:01:16;;;;;;;0.00;0.00;;;;;;;9.08;100.00;100455.00;6337038;22;20013;-75
2023/05/01 05:03:42;;;;;;;0.00;0.00;;;;;;;9.16;100.00;100457.28;6333596;22;20488;-76
2023/05/01 05:06:07;;;;;;;0.00;0.00;;;;;;;9.21;100.00;100464.69;6360953;22;20469;-75
2023/05/01 05:08:33;;;;;;;0.03;0.03;;;;;;;9.30;100.00;100465.06;6337921;22;19998;-76
2023/05/01 05:10:59;;;;;;;0.00;0.00;;;;;;;9.38;100.00;100464.63;6331230;22;20406;-75
2023/05/01 05:13:25;;;;;;;0.00;0.00;;;;;;;9.40;100.00;100457.00;6365375;22;19998;-76
2023/05/01 05:15:50;;;;;;;0.00;0.00;;;;;;;9.50;100.00;100457.09;6334327;22;20782;-76
2023/05/01 05:18:16;;;;;;;0.00;0.00;;;;;;;9.55;100.00;100451.69;6365195;22;20002;-75
2023/05/01 05:20:41;;;;;;;0.00;0.00;;;;;;;9.56;100.00;100436.97;6306924;22;20010;-76
2023/05/01 05:23:07;;;;;;;0.00;0.00;;;;;;;9.60;100.00;100442.72;6334372;22;20051;-75
2023/05/01 05:25:32;;;;;;;0.00;0.00;;;;;;;9.67;100.00;100451.53;6286745;22;20011;-75
2023/05/01 05:27:59;;;;;;;0.00;0.00;;;;;;;9.69;100.00;100449.34;6332813;22;20006;-75
2023/05/01 05:30:25;;;;;;;0.00;0.00;;;;;;;9.77;100.00;100456.25;6286088;22;20006;-75
2023/05/01 05:32:50;;;;;;;0.00;0.00;;;;;;;9.80;100.00;100455.75;6333591;22;20033;-75
2023/05/01 05:35:16;;;;;;;0.00;0.00;;;;;;;9.86;100.00;100468.34;6333354;22;20067;-74
2023/05/01 05:37:42;;;;;;;0.00;0.00;;;;;;;9.93;100.00;100471.69;6333781;22;20104;-75
2023/05/01 05:40:08;;;;;;;0.10;0.10;;;;;;;10.05;100.00;100467.97;6337178;22;20007;-74
2023/05/01 05:42:34;;;;;;;0.00;0.00;;;;;;;10.11;100.00;100475.09;6335082;22;20011;-75
2023/05/01 05:44:59;;;;;;;0.00;0.00;;;;;;;10.21;100.00;100472.44;6361723;22;19998;-75
2023/05/01 05:47:25;;;;;;;0.00;0.00;;;;;;;10.36;100.00;100484.59;6336205;22;20520;-75
2023/05/01 05:49:50;;;;;;;0.00;0.00;;;;;;;10.40;100.00;100483.81;6305775;22;20125;-74
2023/05/01 05:52:16;;;;;;;0.00;0.00;;;;;;;10.46;99.83;100484.66;6333551;22;20006;-75
2023/05/01 05:54:42;;;;;;;0.00;0.00;;;;;;;10.46;99.44;100492.88;6333083;22;20484;-75
2023/05/01 05:57:07;;;;;;;0.00;0.00;;;;;;;10.46;99.35;100484.66;6334434;22;20410;-74
2023/05/01 05:59:33;;;;;;;0.00;0.00;;;;;;;10.52;98.87;100485.53;6366458;22;20521;-73
2023/05/01 06:01:59;;;;;;;0.00;0.00;;;;;;;10.47;98.65;100480.88;6360995;22;20002;-74
2023/05/01 06:04:24;;;;;;;0.00;0.00;;;;;;;10.56;98.44;100495.66;6334868;22;20428;-73
2023/05/01 06:06:50;;;;;;;0.00;0.00;;;;;;;10.59;98.02;100488.84;6336529;22;20010;-74
2023/05/01 06:09:17;;;;;;;0.00;0.00;;;;;;;10.63;97.96;100496.25;6360736;22;20273;-73
2023/05/01 06:11:43;;;;;;;0.00;0.00;;;;;;;10.63;97.92;100490.78;6361782;22;20064;-74
2023/05/01 06:14:09;;;;;;;0.00;0.00;;;;;;;10.67;97.59;100495.72;6308391;22;20492;-73
2023/05/01 06:16:35;;;;;;;0.00;0.00;;;;;;;10.72;97.52;100493.00;6342084;22;20012;-73
2023/05/01 06:19:01;;;;;;;0.00;0.00;;;;;;;10.65;97.12;100476.84;6333390;22;20013;-73
2023/05/01 06:21:26;;;;;;;0.00;0.00;;;;;;;10.72;96.77;100482.91;6368474;22;20332;-72
2023/05/01 06:23:52;;;;;;;0.00;0.00;;;;;;;10.81;96.50;100485.97;6337270;22;20152;-73
2023/05/01 06:26:17;;;;;;;0.00;0.00;;;;;;;10.79;95.54;100494.44;6333970;22;20051;-74
2023/05/01 06:28:43;;;;;;;0.00;0.00;;;;;;;10.78;96.07;100497.44;6365050;22;20314;-74
2023/05/01 06:31:08;;;;;;;0.00;0.00;;;;;;;10.77;95.70;100496.59;6358325;22;20013;-73
2023/05/01 06:33:34;;;;;;;0.00;0.00;;;;;;;10.77;95.77;100506.72;6307566;22;20010;-74
2023/05/01 06:36:00;;;;;;;0.00;0.00;;;;;;;10.71;95.22;100496.84;6331753;22;20071;-73
2023/05/01 06:38:26;;;;;;;0.00;0.00;;;;;;;10.73;95.64;100500.13;6335523;22;20007;-74
2023/05/01 06:40:51;;;;;;;0.00;0.00;;;;;;;10.86;94.94;100521.53;6361236;22;20017;-74
2023/05/01 06:43:17;;;;;;;0.00;0.00;;;;;;;10.89;94.59;100521.00;6359502;22;20006;-74
2023/05/01 06:45:42;;;;;;;0.00;0.00;;;;;;;10.97;94.66;100528.72;6337857;22;20002;-74
2023/05/01 06:48:08;;;;;;;0.00;0.00;;;;;;;10.94;94.21;100518.31;6330455;22;20368;-75
2023/05/01 06:50:33;;;;;;;0.00;0.00;;;;;;;11.11;93.90;100528.22;6337308;22;20463;-75
2023/05/01 06:53:01;;;;;;;0.00;0.00;;;;;;;11.27;93.44;100529.94;6307035;22;20018;-74
2023/05/01 06:55:32;;;;;;;0.00;0.00;;;;;;;11.44;93.36;100520.69;6312947;22;20048;-75
2023/05/01 06:57:58;;;;;;;0.00;0.00;;;;;;;11.77;92.02;100532.25;6310153;22;20071;-75
2023/05/01 07:00:23;;;;;;;0.00;0.00;;;;;;;12.03;91.47;100538.63;6334501;22;20051;-74
2023/05/01 07:02:52;;;;;;;0.00;0.00;;;;;;;12.24;89.52;100528.50;6333342;22;20002;-75
2023/05/01 07:05:17;;;;;;;0.00;0.00;;;;;;;12.53;88.22;100519.72;6335801;22;20025;-75
2023/05/01 07:07:45;;;;;;;0.00;0.00;;;;;;;12.95;86.80;100518.47;6332381;22;20002;-74
2023/05/01 07:10:13;;;;;;;0.00;0.00;;;;;;;13.23;84.95;100521.69;6365046;22;20002;-73
2023/05/01 07:12:38;;;;;;;0.00;0.00;;;;;;;13.57;83.41;100531.97;6358137;22;20008;-73
2023/05/01 07:15:04;;;;;;;0.00;0.00;;;;;;;13.67;82.11;100531.09;6366144;22;20077;-74
2023/05/01 07:17:33;;;;;;;0.00;0.00;;;;;;;13.57;81.58;100521.00;6307828;22;20014;-74
2023/05/01 07:19:59;;;;;;;0.00;0.00;;;;;;;13.84;81.70;100533.47;6312091;22;20421;-73
2023/05/01 07:22:28;;;;;;;0.00;0.00;;;;;;;13.85;80.49;100515.88;6361727;22;20012;-72
2023/05/01 07:24:56;;;;;;;0.00;0.00;;;;;;;13.75;79.91;100525.81;6338721;22;20108;-73
2023/05/01 07:27:22;;;;;;;0.00;0.00;;;;;;;13.61;80.33;100522.88;6337452;22;20363;-74
2023/05/01 07:29:51;;;;;;;0.00;0.00;;;;;;;13.55;79.85;100539.66;6332388;22;20010;-73
2023/05/01 07:32:19;;;;;;;0.00;0.00;;;;;;;13.55;80.08;100539.66;6337635;22;20067;-74
2023/05/01 07:34:55;;;;;;;0.00;0.00;;;;;;;13.46;80.55;100533.94;6358781;22;20131;-74
2023/05/01 07:37:20;;;;;;;0.00;0.00;;;;;;;13.70;80.84;100558.84;6335299;22;20029;-74
2023/05/01 07:39:46;;;;;;;0.00;0.00;;;;;;;13.70;79.85;100558.84;6360279;22;20328;-73
2023/05/01 07:42:11;;;;;;;0.00;0.00;;;;;;;13.84;79.94;100555.44;6308917;22;20417;-74
2023/05/01 07:44:37;;;;;;;0.00;0.00;;;;;;;13.95;79.55;100554.28;6332167;22;20008;-73
2023/05/01 07:47:04;;;;;;;0.00;0.00;;;;;;;13.99;78.83;100549.03;6336033;22;20305;-75
2023/05/01 07:49:35;;;;;;;0.00;0.00;;;;;;;13.93;79.07;100542.72;6310417;22;20021;-74
2023/05/01 07:52:01;;;;;;;0.00;0.00;;;;;;;14.08;78.64;100556.38;6334056;22;20002;-74
2023/05/01 07:54:26;;;;;;;0.00;0.00;;;;;;;14.19;78.67;100553.56;6327908;22;20482;-74
2023/05/01 07:56:51;;;;;;;0.00;0.00;;;;;;;14.19;76.76;100553.56;6329085;22;20810;-74
2023/05/01 07:59:17;;;;;;;0.00;0.00;;;;;;;14.14;77.58;100552.47;6338567;22;20009;-74
2023/05/01 08:01:42;;;;;;;0.00;0.00;;;;;;;14.29;78.22;100547.97;6305271;22;20044;-75
2023/05/01 08:04:08;;;;;;;0.10;0.10;;;;;;;14.45;76.68;100546.72;6335447;22;20013;-74
2023/05/01 08:06:33;;;;;;;0.00;0.00;;;;;;;14.60;75.07;100553.19;6310033;22;20010;-74
2023/05/01 08:09:01;;;;;;;0.00;0.00;;;;;;;14.63;74.47;100545.22;6304823;22;19999;-74
2023/05/01 08:11:29;;;;;;;0.00;0.00;;;;;;;14.83;74.11;100557.97;6336124;22;19998;-74
2023/05/01 08:14:02;;;;;;;0.00;0.00;;;;;;;14.78;73.34;100549.75;6362492;22;20002;-77
2023/05/01 08:17:23;;;;;;;;;;;;;;;;;;;;;
2023/05/01 08:19:57;;;;;;;0.00;0.00;;;;;;;15.29;72.13;100531.00;6372425;22;20077;-75
2023/05/01 08:22:27;;;;;;;0.00;0.00;;;;;;;15.70;70.77;100547.78;6365009;22;20127;-77
2023/05/01 08:24:53;;;;;;;0.00;0.00;;;;;;;15.81;69.09;100542.16;6308837;22;19998;-78
2023/05/01 08:27:27;;;;;;;0.00;0.00;;;;;;;15.75;67.79;100560.69;6338890;22;20051;-76
2023/05/01 08:29:53;;;;;;;0.00;0.00;;;;;;;15.32;68.52;100546.94;6334759;22;20051;-77
2023/05/01 08:32:36;;;;;;;0.00;0.00;;;;;;;15.26;69.67;100564.63;6284543;22;20010;-77
2023/05/01 08:35:01;;;;;;;0.00;0.00;;;;;;;15.16;70.12;100555.38;6311059;22;20013;-76
2023/05/01 08:37:29;;;;;;;0.00;0.00;;;;;;;15.22;70.06;100577.38;6361432;22;20006;-78
2023/05/01 08:39:57;;;;;;;0.00;0.00;;;;;;;15.05;70.71;100558.53;6333283;22;20014;-76
2023/05/01 08:42:22;;;;;;;0.00;0.00;;;;;;;15.42;70.77;100559.75;6312420;22;20012;-77
2023/05/01 08:44:53;;;;;;;0.00;0.00;;;;;;;16.09;69.75;100553.31;6330806;22;20006;-76
2023/05/01 08:47:21;;;;;;;0.00;0.00;;;;;;;16.48;67.13;100550.19;6309744;22;20063;-77
2023/05/01 08:50:06;;;;;;;0.00;0.00;;;;;;;17.12;65.47;100574.44;6329335;22;20027;-75
2023/05/01 08:52:33;;;;;;;0.00;0.00;;;;;;;17.43;64.39;100579.34;6330929;22;20011;-76
2023/05/01 08:55:00;;;;;;;0.00;0.00;;;;;;;17.25;63.21;100562.56;6331732;22;20037;-77
2023/05/01 08:57:35;;;;;;;0.00;0.00;;;;;;;16.94;63.11;100565.13;6310617;22;20360;-76
2023/05/01 09:00:03;;;;;;;0.00;0.00;;;;;;;17.09;63.97;100580.59;6335034;22;20062;-76
2023/05/01 09:02:33;;;;;;;0.00;0.00;;;;;;;17.33;63.17;100558.25;6333747;22;20002;-77
2023/05/01 09:05:02;;;;;;;0.00;0.00;;;;;;;17.91;62.73;100576.09;6338941;22;20017;-77
2023/05/01 09:07:28;;;;;;;0.00;0.00;;;;;;;17.84;60.84;100583.19;6336611;22;20022;-77
2023/05/01 09:09:54;;;;;;;0.00;0.00;;;;;;;17.41;60.62;100573.31;6364984;22;20728;-76
2023/05/01 09:12:37;;;;;;;0.00;0.00;;;;;;;17.41;60.36;100592.66;6361600;22;20002;-76
2023/05/01 09:15:12;;;;;;;0.00;0.00;;;;;;;17.43;60.82;100568.28;6336174;22;20379;-76
2023/05/01 09:17:38;;;;;;;0.00;0.00;;;;;;;17.65;60.53;100591.63;6330328;22;20728;-74
2023/05/01 09:20:07;;;;;;;0.00;0.00;;;;;;;17.57;61.10;100591.22;6337152;22;20298;-74
2023/05/01 09:22:34;;;;;;;0.00;0.00;;;;;;;17.32;61.43;100594.50;6330079;22;20014;-75
2023/05/01 09:25:00;;;;;;;0.00;0.00;;;;;;;16.87;63.37;100595.91;6335040;22;20002;-74
2023/05/01 09:27:26;;;;;;;0.00;0.00;;;;;;;16.47;65.25;100603.75;6307039;22;20432;-74
2023/05/01 09:29:51;;;;;;;0.00;0.00;;;;;;;16.09;65.82;100575.38;6334196;22;20002;-76
2023/05/01 09:32:23;;;;;;;0.00;0.00;;;;;;;16.20;66.57;100613.53;6335293;22;20007;-75
2023/05/01 09:34:50;;;;;;;0.00;0.00;;;;;;;16.43;65.77;100599.97;6358298;22;19998;-74
2023/05/01 09:37:28;;;;;;;0.00;0.00;;;;;;;16.90;64.54;100603.56;6363879;22;20003;-75
2023/05/01 09:40:11;;;;;;;0.00;0.00;;;;;;;17.04;63.40;100606.38;6364141;22;20006;-77
2023/05/01 09:42:39;;;;;;;0.00;0.00;;;;;;;17.00;63.46;100612.81;6340202;22;20010;-77
2023/05/01 09:45:12;;;;;;;0.00;0.00;;;;;;;17.01;62.45;100611.66;6331600;22;20682;-77
2023/05/01 09:47:49;;;;;;;0.00;0.00;;;;;;;20.11;60.33;100605.72;6338547;22;20009;-79
2023/05/01 09:50:41;;;;;;;0.00;0.00;;;;;;;26.60;43.40;100606.22;6334805;22;20089;-77
2023/05/01 09:53:11;;;;;;;0.00;0.00;;;;;;;29.51;34.52;100611.38;6319663;22;20006;-76
2023/05/01 09:55:37;;;;;;;0.00;0.00;;;;;;;27.87;34.06;100597.94;6311490;22;20072;-77
2023/05/01 09:58:05;;;;;;;0.00;0.00;;;;;;;26.12;37.29;100619.66;6359969;22;20015;-77
2023/05/01 10:00:56;;;;;;;;;;;;;;;;;;;;;
2023/05/01 10:03:21;;;;;;;0.00;0.00;;;;;;;21.67;45.37;100617.59;6344908;22;20089;-78
2023/05/01 10:05:49;;;;;;;0.00;0.00;;;;;;;20.09;49.38;100613.53;6309985;22;20030;-77
2023/05/01 10:08:15;;;;;;;0.00;0.00;;;;;;;19.04;52.96;100613.22;6310863;22;20003;-78
2023/05/01 10:10:52;;;;;;;;;;;;;;;;;;;;;
2023/05/01 10:13:18;;;;;;;0.00;0.00;;;;;;;18.26;57.29;100606.84;6362292;22;20142;-77
2023/05/01 10:15:47;;;;;;;0.00;0.00;;;;;;;18.69;57.18;100607.47;6311412;22;20415;-77
2023/05/01 10:18:16;;;;;;;0.00;0.00;;;;;;;19.54;56.12;100615.72;6334805;22;20368;-79
2023/05/01 10:20:41;;;;;;;0.00;0.00;;;;;;;20.50;53.51;100610.25;6338506;22;20709;-77
2023/05/01 10:23:07;;;;;;;0.00;0.00;;;;;;;22.72;49.43;100625.13;6283369;22;20006;-77
2023/05/01 10:25:35;;;;;;;0.00;0.00;;;;;;;23.96;43.93;100611.25;6338024;22;20002;-77
2023/05/01 10:28:03;;;;;;;0.00;0.00;;;;;;;23.90;43.21;100618.25;6335247;22;20089;-77
2023/05/01 10:30:30;;;;;;;0.00;0.00;;;;;;;23.67;42.90;100635.44;6337230;22;20006;-77
2023/05/01 10:32:57;;;;;;;0.00;0.00;;;;;;;23.90;41.98;100618.25;6337206;22;20051;-77
2023/05/01 10:35:37;;;;;;;0.00;0.00;;;;;;;23.76;42.08;100630.56;6335601;22;20025;-76
2023/05/01 10:38:11;;;;;;;0.00;0.00;;;;;;;23.00;42.54;100607.75;6337530;22;20009;-78
2023/05/01 10:40:47;;;;;;;0.00;0.00;;;;;;;22.67;43.12;100642.03;6334611;22;20042;-76
2023/05/01 10:43:29;;;;;;;0.00;0.00;;;;;;;22.65;42.79;100619.28;6337529;22;20008;-76
2023/05/01 10:46:07;;;;;;;0.00;0.00;;;;;;;22.33;42.91;100632.00;6339134;22;20617;-76
2023/05/01 10:48:42;;;;;;;0.00;0.00;;;;;;;21.94;44.31;100632.13;6335658;22;20024;-76
2023/05/01 10:51:09;;;;;;;0.00;0.00;;;;;;;22.28;44.17;100633.00;6338335;22;20017;-76
2023/05/01 10:53:36;;;;;;;0.00;0.00;;;;;;;22.13;44.51;100612.97;6337569;22;20159;-77
2023/05/01 10:56:04;;;;;;;0.00;0.00;;;;;;;22.75;43.12;100635.56;6365939;22;20031;-77
2023/05/01 10:58:37;;;;;;;0.00;0.00;;;;;;;23.23;41.75;100641.63;6339822;22;20003;-78
2023/05/01 11:01:35;;;;;;;0.00;0.00;;;;;;;24.15;40.73;100644.97;6338833;22;20021;-75
2023/05/01 11:04:04;;;;;;;0.00;0.00;;;;;;;25.58;39.58;100644.47;6337263;22;20062;-77
2023/05/01 11:07:04;;;;;;;0.00;0.00;;;;;;;28.76;36.28;100641.66;6366489;22;20002;-76
2023/05/01 11:09:42;;;;;;;0.00;0.00;;;;;;;30.78;29.67;100650.28;6336280;22;20009;-77
2023/05/01 11:12:10;;;;;;;0.00;0.00;;;;;;;30.95;29.39;100636.59;6339180;22;20002;-78
2023/05/01 11:15:04;;;;;;;0.00;0.00;;;;;;;31.31;28.07;100642.31;6335293;22;20013;-76
2023/05/01 11:17:39;;;;;;;0.00;0.00;;;;;;;33.87;25.69;100632.53;6336076;22;20336;-78
2023/05/01 11:20:08;;;;;;;0.00;0.00;;;;;;;34.54;24.45;100621.59;6339338;22;20070;-77
2023/05/01 11:22:42;;;;;;;0.00;0.00;;;;;;;34.02;25.48;100607.66;6336225;22;20085;-76
2023/05/01 11:25:27;;;;;;;0.00;0.00;;;;;;;32.09;25.73;100634.13;6337027;22;20009;-77
2023/05/01 11:27:58;;;;;;;0.00;0.00;;;;;;;29.45;27.09;100614.94;6335376;22;20010;-75
2023/05/01 11:30:23;;;;;;;0.00;0.00;;;;;;;27.40;30.64;100616.09;6336571;22;19998;-76
2023/05/01 11:32:52;;;;;;;0.00;0.00;;;;;;;26.48;31.89;100612.00;6336124;22;20013;-76
2023/05/01 11:35:21;;;;;;;0.00;0.00;;;;;;;26.00;33.40;100628.22;6338049;22;20017;-77
2023/05/01 11:37:50;;;;;;;0.00;0.00;;;;;;;25.09;34.47;100620.41;6337950;22;20013;-76